Here is the Quick Look data you requested

The Data originates at the National Weather Service, and is made available here by the UAlbany Department of Atmospheric and Environmental Sciences

Surface Observations

KACK 271453Z 18011KT 10SM FEW002 20/18 A3004 RMK AO2 SLP171 T02000178 58002=
KAQW 271452Z AUTO 00000KT 10SM CLR 18/13 A2997 RMK AO2 SLP149 T01780133 58017=
KBAF 271453Z 20004KT 10SM BKN050 OVC060 19/14 A3001 RMK AO2 SLP163 60001
 T01940139 $=
KBED 271456Z 26006KT 10SM -RA BKN095 BKN250 18/13 A3000 RMK AO2 RAB1358 SLP169
 P0000 60000 T01780128 50003=
KBOS 271454Z 26008KT 10SM -RA FEW080 OVC110 20/13 A3002 RMK AO2 RAB28 SLP164
 P0000 60000 T02000133 53004=
KBVY 271453Z 26009KT 220V280 10SM OVC100 21/14 A3001 RMK AO2 SLP155 T02110139
 51005=
KCEF 271458Z 00000KT 10SM FEW015 BKN060 BKN180 19/14 A2998 RMK AO2A SLP158
 60003 T01940139 57015=
KCQX 271452Z AUTO 21010G17KT 10SM CLR 22/18 A3004 RMK AO2 SLP173 T02220178
 50000=
KEWB 271453Z 20008KT 10SM OVC110 21/18 A3001 RMK AO2 SLP163 T02110178 53001=
KFIT 271452Z AUTO 07004KT 10SM BKN090 20/13 A3000 RMK AO2 RAE1359 SLP160 P0000
 60000 T02000128 58002=
KFMH 271515Z 18009KT 10SM 21/17 A3003 RMK AO2 PWINO FZRANO WEA=
KHYA 271456Z 19008KT 10SM CLR 21/17 A3001 RMK AO2 SLP163 T02060172 50001=
KLWM 271454Z 25007KT 10SM -RA FEW060 SCT080 BKN095 21/13 A3003 RMK AO2 RAB47
 SLP167 P0000 60000 T02110133 50005=
KMQE 271456Z AUTO 27007KT 17/14 A3002 RMK AO1 SLP173 T01670139 53003=
KMVY 271453Z 20014G18KT 10SM CLR 22/16 A3003 RMK AO2 SLP168 T02220161 50000=
KORE 271452Z AUTO 21004KT 10SM BKN065 OVC080 18/14 A2999 RMK AO2 SLP157
 T01780139 58010 TSNO=
KORH 271454Z 23005KT 10SM OVC110 17/12 A3000 RMK AO2 RAE20 SLP159 P0001 60002
 T01720122 58006=
KOWD 271453Z 29004KT 10SM OVC100 19/15 A3001 RMK AO2 RAB15E44 SLP161 P0000
 60000 T01890150 50003=
KPSF 271454Z AUTO VRB04KT 10SM BKN090 18/12 A2997 RMK AO2 SLP133 T01780117
 58015=
KPVC 271456Z AUTO 17008KT 10SM CLR 21/17 A3002 RMK AO2 SLP164 T02060172 58001=
KPYM 271452Z AUTO 15003KT 10SM OVC110 21/17 A3001 RMK AO2 SLP163 T02110167
 55001 TSNO=
KTAN 271452Z AUTO VRB04KT 10SM FEW018 OVC110 21/17 A3002 RMK AO2 SLP164
 T02060167 53004=